This is the latest recevied weather packets stored in our database for station/object KC3UTO. If no packets are shown the sender has not sent any weather packets the latest 10 day(s).
| Time | Temp. | Humidity | Pressure | Rain* | Wind** | Luminosity | Snow |
|---|---|---|---|---|---|---|---|
| 1777638333 | 10.56° C | 65% | 1013.5 hPa | 0 mm | - | 331 W/m² | - |
| 1777638028 | 10.56° C | 65% | 1013.4 hPa | 0 mm | - | 323 W/m² | - |
| 1777637726 | 10° C | 69% | 1013.4 hPa | 0 mm | - | 286 W/m² | - |
| 1777637422 | 9.44° C | 70% | 1013.6 hPa | 0 mm | - | 244 W/m² | - |
| 1777637120 | 8.89° C | 73% | 1013.5 hPa | 0 mm | - | 215 W/m² | - |
| 1777636816 | 8.89° C | 75% | 1013.6 hPa | 0 mm | - | 148 W/m² | - |
| 1777636512 | 8.33° C | 83% | 1013.7 hPa | 0 mm | - | 124 W/m² | - |
| 1777636208 | 7.22° C | 88% | 1014 hPa | 0 mm | - | 93 W/m² | - |
| 1777635903 | 6.67° C | 90% | 1013.7 hPa | 0 mm | - | 61 W/m² | - |
| 1777635599 | 6.67° C | 92% | 1013.7 hPa | 0 mm | - | 54 W/m² | - |
| 1777635296 | 6.11° C | 94% | 1013.7 hPa | 0 mm | - | 50 W/m² | - |
| 1777634993 | 5.56° C | 95% | 1013.4 hPa | 0 mm | - | 48 W/m² | - |
| 1777634689 | 5° C | 96% | 1013.6 hPa | 0 mm | - | 43 W/m² | - |
| 1777634387 | 5° C | 97% | 1013.5 hPa | 0 mm | - | 41 W/m² | - |
| 1777634083 | 4.44° C | 97% | 1013.5 hPa | 0 mm | - | 39 W/m² | - |
| 1777633780 | 4.44° C | 97% | 1013.6 hPa | 0 mm | - | 38 W/m² | - |
| 1777633477 | 3.89° C | 97% | 1013.6 hPa | 0 mm | - | 35 W/m² | - |
| 1777633176 | 3.89° C | 97% | 1013.5 hPa | 0 mm | - | 33 W/m² | - |
| 1777632872 | 3.89° C | 97% | 1013.5 hPa | 0 mm | - | 31 W/m² | - |
| 1777632568 | 3.33° C | 97% | 1013.4 hPa | 0 mm | - | 30 W/m² | - |
| 1777632266 | 3.33° C | 97% | 1013.2 hPa | 0 mm | - | 27 W/m² | - |
| 1777631962 | 2.78° C | 97% | 1013.4 hPa | 0 mm | - | 23 W/m² | - |
| 1777631661 | 3.33° C | 97% | 1013.1 hPa | 0 mm | - | 21 W/m² | - |
| 1777631357 | 3.33° C | 97% | 1013.4 hPa | 0 mm | - | 17 W/m² | - |
| 1777631055 | 2.78° C | 96% | 1013.3 hPa | 0 mm | - | 15 W/m² | - |
* Rain latest hour (hover to see other rain measurements)
** Current wind speed in m/s (hover to see current wind gust speed)